Time;durP1;ratioP1;P1;durP2;ratioP2;P2;SDS_P1;SDS_P2;PMS_P1;PMS_P2;Temp;Humidity;BMP_temperature;BMP_pressure;BME280_temperature;BME280_humidity;BME280_pressure;Samples;Min_cycle;Max_cycle;Signal;HPM_P1;HPM_P2
2021/08/14 00:00:35;;;;;;;16.02;6.80;;;;;;;14.39;92.46;101716.81;4980096;28;20046;-82
2021/08/14 00:03:00;;;;;;;14.38;6.90;;;;;;;14.40;91.97;101732.00;4978406;28;20042;-80
2021/08/14 00:05:25;;;;;;;13.68;6.97;;;;;;;14.41;91.64;101729.16;4974288;28;20057;-79
2021/08/14 00:07:51;;;;;;;11.63;6.43;;;;;;;14.37;91.98;101735.03;4976494;28;20069;-81
2021/08/14 00:10:17;;;;;;;11.77;6.63;;;;;;;14.32;92.70;101737.38;4989813;28;20067;-80
2021/08/14 00:12:42;;;;;;;11.32;6.32;;;;;;;14.29;92.46;101726.91;4978470;28;20399;-80
2021/08/14 00:15:08;;;;;;;12.48;6.40;;;;;;;14.21;92.45;101714.22;4961326;28;20062;-80
2021/08/14 00:17:37;;;;;;;14.80;7.25;;;;;;;14.14;92.66;101703.25;4980643;28;20487;-80
2021/08/14 00:20:04;;;;;;;13.70;7.23;;;;;;;14.10;93.09;101701.91;4981037;28;20051;-80
2021/08/14 00:22:29;;;;;;;14.05;7.15;;;;;;;14.10;93.44;101707.31;4979168;28;20053;-81
2021/08/14 00:24:55;;;;;;;16.70;6.97;;;;;;;14.10;93.22;101712.72;4980317;28;20241;-80
2021/08/14 00:27:20;;;;;;;15.02;6.85;;;;;;;14.14;92.94;101707.81;4982742;28;20117;-80
2021/08/14 00:29:45;;;;;;;13.02;6.78;;;;;;;14.14;92.69;101702.44;4981916;28;20047;-81
2021/08/14 00:32:11;;;;;;;13.02;6.47;;;;;;;14.08;92.90;101698.53;4976974;28;20468;-81
2021/08/14 00:34:36;;;;;;;16.58;7.47;;;;;;;14.03;93.03;101703.56;4978793;28;20061;-81
2021/08/14 00:37:01;;;;;;;12.88;7.30;;;;;;;14.01;93.22;101697.47;4979969;28;20744;-80
2021/08/14 00:39:27;;;;;;;12.05;7.30;;;;;;;13.92;93.48;101698.47;4982250;28;20062;-80
2021/08/14 00:41:52;;;;;;;12.73;8.15;;;;;;;13.94;92.94;101697.31;4973971;28;20042;-80
2021/08/14 00:44:18;;;;;;;15.75;7.97;;;;;;;13.95;93.78;101714.34;4985936;28;20045;-80
2021/08/14 00:46:44;;;;;;;13.95;7.40;;;;;;;13.90;93.92;101711.31;4981762;28;20489;-80
2021/08/14 00:49:10;;;;;;;15.30;7.38;;;;;;;13.80;94.46;101705.19;4982246;28;20053;-80
2021/08/14 00:51:36;;;;;;;13.60;6.80;;;;;;;13.83;94.35;101700.31;4981721;28;20496;-80
2021/08/14 00:54:01;;;;;;;13.43;7.30;;;;;;;13.83;94.01;101688.69;4981048;28;20046;-81
2021/08/14 00:56:27;;;;;;;14.60;7.78;;;;;;;13.75;94.42;101692.19;4976644;28;20042;-80
2021/08/14 00:58:54;;;;;;;11.82;7.30;;;;;;;13.75;94.57;101690.34;4980937;28;20042;-81
2021/08/14 01:01:23;;;;;;;16.95;7.88;;;;;;;13.81;94.52;101688.00;4977627;28;21893;-81
2021/08/14 01:03:50;;;;;;;18.45;8.25;;;;;;;13.83;94.82;101688.69;4979405;28;20039;-80
2021/08/14 01:06:16;;;;;;;16.75;8.60;;;;;;;13.84;94.59;101685.84;4979355;28;20416;-81
2021/08/14 01:08:45;;;;;;;14.88;8.80;;;;;;;13.91;94.68;101681.44;4979676;28;20069;-80
2021/08/14 01:11:12;;;;;;;16.40;8.32;;;;;;;13.92;94.44;101677.72;4979683;28;20050;-81
2021/08/14 01:13:38;;;;;;;12.93;8.52;;;;;;;13.94;93.89;101675.72;4960126;28;20248;-79
2021/08/14 01:16:05;;;;;;;17.83;8.43;;;;;;;13.90;93.81;101685.16;4963955;28;20127;-80
2021/08/14 01:18:31;;;;;;;19.17;8.85;;;;;;;13.89;93.91;101679.91;4993479;28;20034;-80
2021/08/14 01:20:56;;;;;;;13.45;8.23;;;;;;;13.85;94.37;101675.88;4991972;28;20488;-80
2021/08/14 01:23:22;;;;;;;15.18;8.55;;;;;;;13.87;94.14;101674.72;4979750;28;20038;-81
2021/08/14 01:26:03;;;;;;;14.93;9.10;;;;;;;13.87;94.21;101685.50;4945973;28;20058;-80
2021/08/14 01:28:29;;;;;;;17.38;9.25;;;;;;;13.88;94.46;101686.34;4958329;28;20039;-80
2021/08/14 01:30:54;;;;;;;15.90;9.13;;;;;;;13.84;94.69;101684.97;4973391;28;20109;-81
2021/08/14 01:33:19;;;;;;;18.27;9.35;;;;;;;13.85;94.57;101686.66;4957114;28;20064;-81
2021/08/14 01:35:46;;;;;;;15.35;8.55;;;;;;;13.85;94.69;101684.81;4960933;28;20527;-80
2021/08/14 01:38:11;;;;;;;15.55;9.13;;;;;;;13.85;94.37;101692.91;4959966;28;20057;-81
2021/08/14 01:40:37;;;;;;;16.35;9.15;;;;;;;13.84;94.58;101690.34;4942858;28;20043;-81
2021/08/14 01:43:02;;;;;;;15.43;8.73;;;;;;;13.83;94.44;101685.97;4955010;28;20042;-81
2021/08/14 01:45:28;;;;;;;16.15;9.40;;;;;;;13.82;94.29;101678.91;4975038;28;20046;-80
2021/08/14 01:47:54;;;;;;;15.40;9.18;;;;;;;13.76;94.60;101669.63;4959679;28;20047;-80
2021/08/14 01:50:20;;;;;;;18.42;9.48;;;;;;;13.70;95.13;101678.38;4959759;28;20646;-80
2021/08/14 01:52:45;;;;;;;22.98;11.07;;;;;;;13.66;95.20;101672.44;4959260;28;20610;-80
2021/08/14 01:55:10;;;;;;;18.63;9.38;;;;;;;13.64;95.03;101669.06;4977918;28;20499;-82
2021/08/14 01:57:36;;;;;;;13.82;8.70;;;;;;;13.59;95.27;101660.63;4984956;28;20269;-80
2021/08/14 02:00:01;;;;;;;17.13;9.35;;;;;;;13.57;95.38;101649.13;4979268;28;20503;-80
2021/08/14 02:02:29;;;;;;;21.08;11.45;;;;;;;13.59;96.00;101649.81;4978034;28;20050;-80
2021/08/14 02:04:54;;;;;;;23.50;10.45;;;;;;;13.54;95.68;101657.56;4962709;28;20254;-80
2021/08/14 02:07:19;;;;;;;16.88;10.02;;;;;;;13.57;95.28;101651.84;4975401;28;20038;-80
2021/08/14 02:09:45;;;;;;;15.63;10.23;;;;;;;13.59;95.31;101647.13;4983944;28;20307;-81
2021/08/14 02:12:10;;;;;;;15.45;9.85;;;;;;;13.58;95.30;101642.75;4981861;28;20522;-80
2021/08/14 02:14:35;;;;;;;16.40;10.00;;;;;;;13.53;95.18;101639.69;4977331;28;20042;-81
2021/08/14 02:17:01;;;;;;;17.40;10.82;;;;;;;13.48;95.74;101636.63;4978949;28;20121;-81
2021/08/14 02:19:26;;;;;;;16.55;10.05;;;;;;;13.45;95.64;101645.91;4973159;28;20061;-81
2021/08/14 02:21:51;;;;;;;18.83;11.80;;;;;;;13.55;95.69;101645.75;4968608;28;20241;-80
2021/08/14 02:24:17;;;;;;;17.40;11.05;;;;;;;13.57;95.41;101653.69;4957116;28;20120;-80
2021/08/14 02:26:42;;;;;;;15.05;10.35;;;;;;;13.53;95.35;101650.47;4959512;28;20177;-80
2021/08/14 02:29:08;;;;;;;15.73;9.23;;;;;;;13.45;95.68;101648.59;4971452;28;20042;-81
2021/08/14 02:31:33;;;;;;;16.67;10.32;;;;;;;13.45;95.57;101639.66;4956481;28;20089;-80
2021/08/14 02:33:58;;;;;;;17.75;10.10;;;;;;;13.38;95.91;101654.78;4939942;28;20698;-80
2021/08/14 02:36:24;;;;;;;17.83;10.75;;;;;;;13.40;96.10;101658.16;4959172;28;20793;-80
2021/08/14 02:38:49;;;;;;;17.88;10.80;;;;;;;13.35;96.29;101658.69;4958213;28;20045;-81
2021/08/14 02:41:15;;;;;;;18.17;10.95;;;;;;;13.32;96.02;101649.06;4957662;28;20054;-80
2021/08/14 02:43:40;;;;;;;17.35;10.43;;;;;;;13.27;96.08;101651.38;4982195;28;20038;-80
2021/08/14 02:46:05;;;;;;;20.45;11.35;;;;;;;13.21;96.90;101657.38;4976253;28;20078;-80
2021/08/14 02:48:31;;;;;;;20.02;10.85;;;;;;;13.22;96.67;101656.38;4977132;28;20050;-81
2021/08/14 02:50:57;;;;;;;17.08;10.30;;;;;;;13.19;96.60;101653.16;4977044;28;20138;-82
2021/08/14 02:53:23;;;;;;;20.25;10.93;;;;;;;13.17;96.99;101645.22;4993103;28;20082;-80
2021/08/14 02:55:49;;;;;;;20.15;10.75;;;;;;;13.17;96.98;101649.78;4974336;28;20038;-80
2021/08/14 02:58:14;;;;;;;21.88;11.38;;;;;;;13.16;96.85;101648.09;4973961;28;20056;-80
2021/08/14 03:00:40;;;;;;;18.83;10.63;;;;;;;13.17;96.73;101650.59;4977024;28;20101;-81
2021/08/14 03:03:05;;;;;;;19.95;10.77;;;;;;;13.13;96.48;101643.88;4976576;28;20104;-81
2021/08/14 03:05:31;;;;;;;18.70;11.25;;;;;;;13.14;96.45;101650.94;4979083;28;20045;-80
2021/08/14 03:07:56;;;;;;;16.05;10.95;;;;;;;13.12;96.69;101650.28;4983111;28;20081;-82
2021/08/14 03:10:22;;;;;;;18.83;10.38;;;;;;;13.09;96.78;101647.91;4978080;28;20133;-81
2021/08/14 03:12:48;;;;;;;18.73;11.18;;;;;;;13.09;96.90;101647.91;4979781;28;20133;-81
2021/08/14 03:15:14;;;;;;;18.75;11.00;;;;;;;13.06;97.03;101637.41;4990698;28;20133;-82
2021/08/14 03:17:40;;;;;;;15.88;10.07;;;;;;;13.04;96.65;101637.59;4977394;28;20408;-81
2021/08/14 03:20:06;;;;;;;16.10;10.55;;;;;;;13.03;96.95;101643.13;4976490;28;20046;-80
2021/08/14 03:22:31;;;;;;;15.95;10.50;;;;;;;12.97;97.10;101644.59;4978050;28;20038;-80
2021/08/14 03:24:57;;;;;;;18.00;10.88;;;;;;;12.97;97.14;101641.06;4976822;28;20391;-81
2021/08/14 03:27:22;;;;;;;19.35;11.00;;;;;;;12.94;97.04;101634.16;4976043;28;20156;-81
2021/08/14 03:29:47;;;;;;;17.55;10.23;;;;;;;12.92;97.09;101638.00;4979475;28;20049;-82
2021/08/14 03:32:13;;;;;;;16.50;10.70;;;;;;;12.91;97.18;101636.31;5007692;28;20045;-80
2021/08/14 03:34:38;;;;;;;17.35;11.15;;;;;;;12.88;96.92;101630.22;4976242;28;20368;-80
2021/08/14 03:37:04;;;;;;;18.20;11.35;;;;;;;12.88;97.15;101627.53;4975748;28;20145;-81
2021/08/14 03:39:29;;;;;;;19.15;11.77;;;;;;;12.86;97.24;101629.56;4975628;28;20039;-81
2021/08/14 03:41:54;;;;;;;18.45;11.70;;;;;;;12.84;97.57;101628.88;4976226;28;20053;-81
2021/08/14 03:44:20;;;;;;;18.98;10.88;;;;;;;12.84;97.39;101634.25;4956975;28;20047;-81
2021/08/14 03:46:45;;;;;;;21.73;11.90;;;;;;;12.81;97.78;101621.13;4974639;28;20038;-80
2021/08/14 03:49:11;;;;;;;20.88;11.45;;;;;;;12.78;97.81;101628.69;4957625;28;20078;-80
2021/08/14 03:51:36;;;;;;;19.33;11.55;;;;;;;12.73;98.03;101623.75;4975980;28;20042;-81
2021/08/14 03:54:01;;;;;;;19.35;12.57;;;;;;;12.72;98.11;101613.16;4981738;28;20050;-80
2021/08/14 03:56:27;;;;;;;21.02;11.77;;;;;;;12.69;98.26;101619.69;4977845;28;20554;-81
2021/08/14 03:58:52;;;;;;;16.65;10.55;;;;;;;12.68;98.14;101606.38;4979158;28;20145;-81
2021/08/14 04:01:18;;;;;;;20.13;12.45;;;;;;;12.75;99.31;101608.28;4974149;28;20078;-82
2021/08/14 04:03:43;;;;;;;26.60;12.68;;;;;;;12.76;98.85;101611.81;4980705;28;20054;-80
2021/08/14 04:06:08;;;;;;;27.00;14.45;;;;;;;12.85;99.60;101605.47;4960479;28;20447;-81
2021/08/14 04:08:34;;;;;;;25.45;14.00;;;;;;;12.99;99.66;101604.88;4985396;28;20443;-81
2021/08/14 04:10:59;;;;;;;21.45;12.20;;;;;;;13.04;98.38;101610.66;4962205;28;20042;-80
2021/08/14 04:13:25;;;;;;;27.00;13.18;;;;;;;13.13;98.54;101605.28;4982506;28;20042;-82
2021/08/14 04:15:50;;;;;;;25.80;12.38;;;;;;;13.09;98.49;101616.41;4978086;28;20307;-81
2021/08/14 04:18:15;;;;;;;23.48;13.27;;;;;;;13.14;98.14;101607.81;4979382;28;20124;-82
2021/08/14 04:20:41;;;;;;;22.08;12.93;;;;;;;13.15;97.53;101614.03;4981512;28;20368;-81
2021/08/14 04:23:06;;;;;;;22.83;12.80;;;;;;;13.16;97.02;101621.13;4979059;28;20530;-81
2021/08/14 04:25:32;;;;;;;24.65;13.35;;;;;;;13.13;96.88;101622.31;4974386;28;20380;-81
2021/08/14 04:27:57;;;;;;;22.85;12.30;;;;;;;13.08;97.39;101625.47;4980253;28;20093;-80
2021/08/14 04:30:23;;;;;;;24.05;12.95;;;;;;;13.00;97.28;101624.56;4981290;28;20039;-80
2021/08/14 04:32:50;;;;;;;24.90;12.32;;;;;;;12.96;97.33;101621.38;4975203;28;20125;-80
2021/08/14 04:35:16;;;;;;;20.02;11.57;;;;;;;12.97;97.41;101616.81;4968896;28;20066;-80
2021/08/14 04:37:42;;;;;;;20.20;12.45;;;;;;;12.94;97.96;101612.59;4978767;28;20414;-80
2021/08/14 04:40:16;;;;;;;22.35;11.88;;;;;;;12.88;98.00;101618.63;4999627;28;20070;-81
2021/08/14 04:42:43;;;;;;;18.30;12.63;;;;;;;12.90;98.29;101622.00;4983054;28;20086;-80
2021/08/14 04:45:10;;;;;;;21.88;13.27;;;;;;;12.94;98.41;101623.38;4978038;28;20061;-81
2021/08/14 04:47:36;;;;;;;20.98;12.68;;;;;;;12.88;98.08;101622.16;4981836;28;20042;-82
2021/08/14 04:50:01;;;;;;;19.23;11.73;;;;;;;12.95;98.12;101626.94;4979858;28;20057;-80
2021/08/14 04:52:27;;;;;;;21.88;13.43;;;;;;;13.00;97.99;101617.34;4981787;28;20046;-81
2021/08/14 04:54:52;;;;;;;26.20;14.27;;;;;;;13.04;97.65;101625.97;4977125;28;20406;-82
2021/08/14 04:57:17;;;;;;;20.52;13.60;;;;;;;13.04;98.21;101624.13;4983041;28;20034;-81
2021/08/14 04:59:43;;;;;;;23.55;13.68;;;;;;;13.06;98.23;101626.63;4977008;28;20042;-81
2021/08/14 05:02:09;;;;;;;28.02;14.77;;;;;;;13.01;98.62;101620.91;4978050;28;20168;-81
2021/08/14 05:04:34;;;;;;;25.35;13.93;;;;;;;13.02;99.25;101625.28;4978329;28;20042;-82
2021/08/14 05:07:00;;;;;;;26.58;14.30;;;;;;;13.03;99.22;101626.94;4978800;28;20042;-81
2021/08/14 05:09:27;;;;;;;28.23;13.10;;;;;;;13.06;98.81;101618.53;4979870;28;20077;-81
2021/08/14 05:11:53;;;;;;;20.65;13.40;;;;;;;13.06;99.38;101615.84;4979414;28;20693;-81
2021/08/14 05:14:19;;;;;;;25.05;14.00;;;;;;;13.16;99.50;101611.19;4979269;28;20050;-81
2021/08/14 05:16:45;;;;;;;24.25;14.30;;;;;;;13.23;99.54;101608.69;4979787;28;20040;-81
2021/08/14 05:19:12;;;;;;;24.10;14.07;;;;;;;13.32;99.68;101613.13;4978487;28;20038;-80
2021/08/14 05:21:38;;;;;;;25.75;14.75;;;;;;;13.47;99.22;101613.38;4980511;28;20570;-80
2021/08/14 05:24:03;;;;;;;30.42;15.38;;;;;;;13.61;98.91;101610.06;4978778;28;20061;-80
2021/08/14 05:26:29;;;;;;;23.90;14.02;;;;;;;13.70;98.73;101609.06;4981226;28;20038;-81
2021/08/14 05:28:54;;;;;;;22.85;14.52;;;;;;;13.84;98.03;101614.81;4977834;28;20034;-81
2021/08/14 05:31:20;;;;;;;25.52;13.95;;;;;;;13.99;97.69;101611.31;4979151;28;20508;-81
2021/08/14 05:33:45;;;;;;;29.00;13.95;;;;;;;14.07;97.14;101618.59;4976126;28;20445;-80
2021/08/14 05:36:11;;;;;;;23.08;13.63;;;;;;;14.19;97.27;101611.84;4977344;28;20452;-81
2021/08/14 05:38:36;;;;;;;24.58;13.38;;;;;;;14.27;97.51;101610.13;4979639;28;20049;-81
2021/08/14 05:41:03;;;;;;;26.90;13.02;;;;;;;14.36;96.33;101614.56;4978699;28;20082;-81
2021/08/14 05:43:29;;;;;;;22.75;12.38;;;;;;;14.42;96.79;101620.09;4961337;28;20576;-80
2021/08/14 05:45:54;;;;;;;25.10;12.52;;;;;;;14.52;96.87;101628.06;4982705;28;20054;-80
2021/08/14 05:48:20;;;;;;;21.23;12.18;;;;;;;14.64;95.46;101631.25;4972395;28;20122;-81
2021/08/14 05:50:46;;;;;;;19.75;11.85;;;;;;;14.74;95.30;101623.00;4991711;28;20053;-81
2021/08/14 05:53:12;;;;;;;27.05;13.55;;;;;;;14.81;95.04;101614.00;4978997;28;20062;-81
2021/08/14 05:55:37;;;;;;;27.27;11.82;;;;;;;14.88;94.81;101608.78;4979608;28;20060;-81
2021/08/14 05:58:06;;;;;;;24.05;12.10;;;;;;;14.97;94.74;101605.03;4988661;28;20046;-80
2021/08/14 06:00:31;;;;;;;20.25;11.40;;;;;;;15.05;94.30;101605.00;4997306;28;20052;-81
2021/08/14 06:02:57;;;;;;;24.15;12.65;;;;;;;15.12;94.43;101602.44;4979026;28;20121;-81
2021/08/14 06:05:23;;;;;;;22.08;10.10;;;;;;;15.22;93.77;101604.94;4980554;28;20077;-80
2021/08/14 06:07:50;;;;;;;19.80;10.68;;;;;;;15.29;92.37;101597.81;4977367;28;20411;-80
2021/08/14 06:10:17;;;;;;;22.02;10.57;;;;;;;15.39;92.58;101600.28;4978141;28;20195;-80
2021/08/14 06:12:43;;;;;;;19.60;10.30;;;;;;;15.45;93.86;101605.88;4976675;28;20046;-81
2021/08/14 06:15:09;;;;;;;18.48;10.65;;;;;;;15.54;92.53;101609.38;4968818;28;20391;-81
2021/08/14 06:17:35;;;;;;;27.38;11.90;;;;;;;15.61;92.73;101610.31;4981756;28;20134;-81
2021/08/14 06:20:01;;;;;;;21.70;11.10;;;;;;;15.67;92.18;101606.91;4975415;28;20130;-81
2021/08/14 06:22:26;;;;;;;24.60;12.27;;;;;;;15.78;91.63;101603.00;4980161;28;20065;-81
2021/08/14 06:24:53;;;;;;;21.08;10.75;;;;;;;15.91;91.67;101596.97;4973324;28;20137;-81
2021/08/14 06:27:19;;;;;;;24.13;9.88;;;;;;;16.00;91.21;101593.22;4980090;28;20876;-81
2021/08/14 06:29:44;;;;;;;21.75;9.88;;;;;;;16.13;91.91;101603.44;4978879;28;20050;-81
2021/08/14 06:32:11;;;;;;;19.77;9.55;;;;;;;16.20;90.67;101605.25;4957607;28;20241;-79
2021/08/14 06:34:37;;;;;;;17.83;9.73;;;;;;;16.27;90.10;101602.63;4979508;28;20081;-79
2021/08/14 06:37:02;;;;;;;19.08;10.25;;;;;;;16.40;90.40;101599.28;4980558;28;20042;-80
2021/08/14 06:39:27;;;;;;;22.27;11.00;;;;;;;16.49;88.80;101592.81;4978360;28;20054;-81
2021/08/14 06:41:53;;;;;;;20.65;10.80;;;;;;;16.55;89.65;101602.91;4978623;28;20077;-80
2021/08/14 06:44:18;;;;;;;23.33;11.60;;;;;;;16.66;88.70;101594.31;4980770;28;20126;-81
2021/08/14 06:46:43;;;;;;;20.17;12.18;;;;;;;16.72;88.15;101592.75;4983932;28;20046;-80
2021/08/14 06:49:09;;;;;;;22.45;12.23;;;;;;;16.78;87.41;101600.16;4978484;28;20420;-79
2021/08/14 06:51:37;;;;;;;26.27;13.70;;;;;;;16.76;87.36;101591.38;4992684;28;20522;-82
2021/08/14 06:54:03;;;;;;;25.33;11.98;;;;;;;16.72;89.08;101592.75;4977936;28;20498;-79
2021/08/14 06:56:28;;;;;;;26.83;12.60;;;;;;;16.75;89.36;101607.78;4979855;28;20054;-80
2021/08/14 06:58:54;;;;;;;27.98;12.98;;;;;;;16.86;88.80;101596.50;4979788;28;20089;-81
2021/08/14 07:01:20;;;;;;;22.35;13.82;;;;;;;16.87;87.77;101590.91;4980496;28;20061;-82
2021/08/14 07:03:45;;;;;;;31.60;13.85;;;;;;;16.91;88.16;101592.22;4977112;28;20112;-80
2021/08/14 07:06:21;;;;;;;27.20;13.43;;;;;;;16.91;87.84;101589.50;4975712;28;20054;-81
2021/08/14 07:08:46;;;;;;;24.30;13.68;;;;;;;16.98;87.87;101591.47;4978433;28;20488;-81
2021/08/14 07:11:13;;;;;;;25.02;14.15;;;;;;;16.99;88.16;101601.28;4975651;28;20121;-82
2021/08/14 07:13:38;;;;;;;31.08;13.82;;;;;;;17.05;87.87;101595.13;4974844;28;20039;-82
2021/08/14 07:16:05;;;;;;;22.48;12.90;;;;;;;17.18;88.41;101598.03;4977106;28;20442;-80
2021/08/14 07:18:30;;;;;;;25.25;13.45;;;;;;;17.20;86.98;101601.38;4978483;28;20248;-80
2021/08/14 07:20:56;;;;;;;27.02;11.43;;;;;;;17.30;86.50;101595.66;4975787;28;20038;-82
2021/08/14 07:23:21;;;;;;;24.45;12.18;;;;;;;17.40;85.52;101598.06;4977165;28;20500;-82
2021/08/14 07:25:51;;;;;;;20.83;11.63;;;;;;;17.50;85.66;101606.78;4980850;28;20089;-81
2021/08/14 07:28:17;;;;;;;17.80;10.10;;;;;;;17.51;84.47;101597.59;4975040;28;20074;-81
2021/08/14 07:30:42;;;;;;;21.13;11.18;;;;;;;17.51;84.11;101593.00;4978512;28;20502;-81
2021/08/14 07:33:07;;;;;;;23.92;11.70;;;;;;;17.56;83.49;101592.44;4980242;28;20046;-80
2021/08/14 07:35:33;;;;;;;21.15;11.45;;;;;;;17.69;83.93;101581.72;4982827;28;20052;-81
2021/08/14 07:37:58;;;;;;;23.48;10.52;;;;;;;17.77;83.21;101573.44;4977976;28;20495;-80
2021/08/14 07:40:24;;;;;;;19.55;9.98;;;;;;;17.84;82.30;101578.13;4981411;28;20160;-80
2021/08/14 07:42:50;;;;;;;22.73;10.85;;;;;;;17.88;80.35;101585.72;4982946;28;20045;-80
2021/08/14 07:45:19;;;;;;;18.10;8.90;;;;;;;17.94;79.90;101589.53;4975756;28;20509;-82
2021/08/14 07:47:48;;;;;;;18.90;9.15;;;;;;;18.01;79.93;101587.72;4983620;28;20066;-81
2021/08/14 07:50:21;;;;;;;20.35;8.52;;;;;;;18.09;78.88;101586.75;4972719;28;20093;-81
2021/08/14 07:52:49;;;;;;;14.30;7.75;;;;;;;18.21;78.94;101591.47;4974405;28;20034;-80
2021/08/14 07:55:14;;;;;;;13.63;6.28;;;;;;;18.30;76.73;101594.91;4980779;28;20050;-80
2021/08/14 07:57:41;;;;;;;14.07;5.53;;;;;;;18.36;75.76;101596.81;4976887;28;20034;-80
2021/08/14 08:00:08;;;;;;;13.68;5.55;;;;;;;18.38;74.68;101594.72;4976996;28;20050;-79
2021/08/14 08:02:34;;;;;;;13.73;5.10;;;;;;;18.42;74.14;101596.03;4976924;28;20780;-79
2021/08/14 08:04:59;;;;;;;12.63;5.65;;;;;;;18.53;74.39;101593.81;4976454;28;20404;-81
2021/08/14 08:07:25;;;;;;;15.73;5.55;;;;;;;18.57;74.28;101601.38;5008732;28;20084;-82
2021/08/14 08:09:50;;;;;;;12.02;5.78;;;;;;;18.59;73.98;101595.75;4990018;28;20120;-82
2021/08/14 08:12:15;;;;;;;18.00;6.75;;;;;;;18.68;74.57;101589.13;4976448;28;20049;-82
2021/08/14 08:14:41;;;;;;;17.65;6.60;;;;;;;18.71;74.87;101595.00;4976000;28;20507;-82
2021/08/14 08:17:06;;;;;;;14.20;6.53;;;;;;;18.76;74.53;101591.72;4991850;28;20519;-79
2021/08/14 08:19:32;;;;;;;17.02;6.75;;;;;;;18.84;74.67;101594.25;4976662;28;20066;-79
2021/08/14 08:21:57;;;;;;;13.10;6.13;;;;;;;18.92;73.96;101590.56;4972849;28;20426;-80
2021/08/14 08:24:23;;;;;;;15.98;6.35;;;;;;;18.90;73.74;101592.63;4979246;28;20037;-81
2021/08/14 08:26:48;;;;;;;14.07;5.88;;;;;;;18.97;73.27;101577.22;4974485;28;20729;-80
2021/08/14 08:29:13;;;;;;;13.52;6.05;;;;;;;19.01;72.72;101583.91;4976286;28;20038;-81
2021/08/14 08:31:39;;;;;;;14.20;5.43;;;;;;;19.14;73.31;101588.59;4977871;28;20563;-79
2021/08/14 08:34:04;;;;;;;17.92;5.68;;;;;;;19.17;72.80;101580.88;4975272;28;20136;-80
2021/08/14 08:36:29;;;;;;;12.07;5.15;;;;;;;19.23;72.54;101572.94;4967121;28;20050;-80
2021/08/14 08:38:56;;;;;;;16.70;6.55;;;;;;;19.27;72.13;101571.47;4981310;28;20566;-79
2021/08/14 08:41:21;;;;;;;13.90;5.35;;;;;;;19.38;72.92;101576.34;4983559;28;20051;-81
2021/08/14 08:43:47;;;;;;;14.88;6.10;;;;;;;19.45;72.47;101579.09;4984359;28;20567;-83
2021/08/14 08:46:12;;;;;;;13.02;5.47;;;;;;;19.59;72.98;101581.66;4977803;28;20491;-79
2021/08/14 08:48:43;;;;;;;13.50;5.18;;;;;;;19.67;72.12;101569.78;4978724;28;20050;-80
2021/08/14 08:51:10;;;;;;;12.18;5.50;;;;;;;19.65;72.09;101580.03;4981970;28;21141;-81
2021/08/14 08:53:38;;;;;;;14.38;6.32;;;;;;;19.77;72.49;101572.94;4982068;28;20054;-82
2021/08/14 08:56:04;;;;;;;16.42;6.18;;;;;;;19.83;72.00;101565.84;4982906;28;20049;-80
2021/08/14 08:58:35;;;;;;;16.35;6.13;;;;;;;19.87;71.74;101575.25;4965455;28;20436;-81
2021/08/14 09:01:00;;;;;;;14.73;5.20;;;;;;;19.90;70.69;101566.66;4975803;28;20049;-82
2021/08/14 09:03:29;;;;;;;14.40;5.40;;;;;;;19.96;71.08;101570.44;4995801;28;20046;-82
2021/08/14 09:05:54;;;;;;;14.27;5.70;;;;;;;19.91;71.29;101557.47;4981665;28;20061;-82
2021/08/14 09:08:20;;;;;;;16.77;5.50;;;;;;;19.96;72.13;101557.66;4968027;28;20286;-82
2021/08/14 09:10:46;;;;;;;10.60;6.45;;;;;;;20.03;70.89;101557.69;4998846;28;20038;-84
2021/08/14 09:13:16;;;;;;;16.48;5.72;;;;;;;20.08;71.60;101548.88;4978086;28;20248;-84
2021/08/14 09:15:42;;;;;;;19.05;5.75;;;;;;;20.17;71.42;101555.78;4979172;28;20045;-82
2021/08/14 09:18:10;;;;;;;17.60;6.70;;;;;;;20.26;71.40;101560.00;4978203;28;20050;-82
2021/08/14 09:20:53;;;;;;;16.25;5.72;;;;;;;20.29;71.03;101560.41;4976043;28;20062;-85
2021/08/14 09:23:23;;;;;;;16.98;6.13;;;;;;;20.40;71.70;101553.50;4978358;28;20066;-83
2021/08/14 09:25:56;;;;;;;14.02;5.47;;;;;;;20.48;71.29;101557.88;4979856;28;20077;-83
2021/08/14 09:28:30;;;;;;;12.57;5.63;;;;;;;20.51;70.79;101552.88;4996645;28;20130;-85
2021/08/14 09:30:59;;;;;;;12.90;5.80;;;;;;;20.53;70.25;101551.84;4976510;28;20302;-82
2021/08/14 09:33:28;;;;;;;18.67;5.97;;;;;;;20.55;70.16;101555.19;4976781;28;20038;-81
2021/08/14 09:36:02;;;;;;;17.25;5.68;;;;;;;20.61;70.28;101551.63;4978624;28;20081;-85
2021/08/14 09:38:43;;;;;;;14.45;5.38;;;;;;;20.69;69.27;101549.50;4961315;28;20042;-85
2021/08/14 09:41:19;;;;;;;12.32;4.72;;;;;;;20.82;69.97;101543.16;4978279;28;20054;-84
2021/08/14 09:43:45;;;;;;;13.45;5.53;;;;;;;20.89;69.12;101549.47;4978845;28;20507;-82
2021/08/14 09:46:11;;;;;;;12.65;4.90;;;;;;;20.86;68.15;101544.44;4977324;28;20427;-83
2021/08/14 09:48:37;;;;;;;13.23;6.28;;;;;;;20.97;69.33;101551.09;4980467;28;20117;-83
2021/08/14 09:51:03;;;;;;;13.13;4.22;;;;;;;21.12;68.62;101554.41;4979088;28;20057;-83
2021/08/14 09:53:30;;;;;;;12.40;4.72;;;;;;;21.13;68.00;101547.06;4980622;28;20096;-84
2021/08/14 09:56:10;;;;;;;10.52;5.15;;;;;;;21.11;67.98;101543.69;4979059;28;20053;-85
2021/08/14 09:58:39;;;;;;;13.57;4.95;;;;;;;21.14;68.11;101546.00;4991925;28;20047;-83
2021/08/14 10:01:07;;;;;;;17.83;5.30;;;;;;;21.23;68.27;101543.88;4977385;28;20511;-84
2021/08/14 10:03:33;;;;;;;11.52;4.50;;;;;;;21.26;67.37;101535.25;4978214;28;20119;-84
2021/08/14 10:06:01;;;;;;;13.13;3.83;;;;;;;21.38;67.77;101530.81;4978311;28;20495;-83
2021/08/14 10:08:27;;;;;;;11.90;4.97;;;;;;;21.44;65.93;101537.31;4976065;28;20046;-83
2021/08/14 10:10:54;;;;;;;11.80;3.70;;;;;;;21.36;65.61;101539.22;4977893;28;20042;-84
2021/08/14 10:13:20;;;;;;;12.55;3.90;;;;;;;21.34;63.97;101533.09;4976953;28;20050;-83
2021/08/14 10:15:46;;;;;;;10.90;3.03;;;;;;;21.40;63.38;101539.63;4995214;28;20065;-83
2021/08/14 10:18:17;;;;;;;11.57;3.35;;;;;;;21.45;61.08;101525.31;4977048;28;20070;-84
2021/08/14 10:20:43;;;;;;;10.68;3.47;;;;;;;21.46;61.06;101536.00;4974973;28;20081;-84
2021/08/14 10:23:10;;;;;;;10.95;2.83;;;;;;;21.43;60.57;101521.97;4977526;28;20859;-81
2021/08/14 10:25:39;;;;;;;9.73;2.80;;;;;;;21.48;59.43;101533.06;4980923;28;20069;-81
2021/08/14 10:28:07;;;;;;;7.57;2.80;;;;;;;21.54;59.53;101532.19;4978439;28;20061;-81
2021/08/14 10:30:53;;;;;;;10.75;3.35;;;;;;;21.53;58.36;101525.91;5010590;28;20043;-81
2021/08/14 10:33:27;;;;;;;8.88;3.35;;;;;;;21.52;58.26;101531.56;4975870;28;20141;-86
2021/08/14 10:35:55;;;;;;;11.77;4.30;;;;;;;21.62;58.57;101534.66;4977280;28;20042;-84
2021/08/14 10:38:36;;;;;;;10.33;3.23;;;;;;;21.77;58.39;101543.38;4961101;28;20056;-83
2021/08/14 10:41:01;;;;;;;8.77;2.97;;;;;;;21.85;58.29;101539.56;4978206;28;20050;-84
2021/08/14 10:43:52;;;;;;;10.13;2.97;;;;;;;21.93;58.03;101533.00;4978424;28;20617;-84
2021/08/14 10:46:50;;;;;;;8.38;2.58;;;;;;;22.05;56.79;101537.50;4977501;28;20112;-84
2021/08/14 10:49:35;;;;;;;9.23;2.65;;;;;;;22.04;56.45;101535.03;4976187;28;20057;-84
2021/08/14 10:52:01;;;;;;;7.22;3.03;;;;;;;22.00;57.28;101531.03;4974620;28;20046;-82
2021/08/14 10:54:29;;;;;;;7.68;2.75;;;;;;;22.12;55.49;101525.69;4976726;28;20051;-82
2021/08/14 10:57:01;;;;;;;8.55;3.05;;;;;;;22.08;55.55;101530.75;4993406;28;20054;-84
2021/08/14 10:59:38;;;;;;;7.03;2.80;;;;;;;22.07;56.98;101527.19;4976421;28;20047;-82
2021/08/14 11:02:06;;;;;;;8.60;2.88;;;;;;;22.24;55.57;101534.84;4976857;28;20089;-83
2021/08/14 11:04:34;;;;;;;8.30;2.50;;;;;;;22.32;54.93;101533.75;4990287;28;20053;-83
2021/08/14 11:07:17;;;;;;;6.63;3.47;;;;;;;22.34;54.39;101526.16;4978053;28;20050;-83
2021/08/14 11:10:03;;;;;;;8.32;3.53;;;;;;;22.40;55.59;101530.72;4977398;28;20046;-84
2021/08/14 11:12:47;;;;;;;7.55;2.63;;;;;;;22.35;55.06;101541.50;4960310;28;20081;-85